createdAt,value
2019-02-23T00:00:46.962Z,-0.50
2019-02-23T00:03:15.419Z,-0.60
2019-02-23T00:05:43.863Z,-0.70
2019-02-23T00:08:12.321Z,-0.70
2019-02-23T00:10:40.761Z,-0.70
2019-02-23T00:13:09.208Z,-0.80
2019-02-23T00:15:37.675Z,-0.80
2019-02-23T00:18:06.173Z,-0.80
2019-02-23T00:20:34.719Z,-0.80
2019-02-23T00:23:03.223Z,-0.90
2019-02-23T00:25:31.663Z,-0.80
2019-02-23T00:28:00.251Z,-0.90
2019-02-23T00:30:28.696Z,-0.90
2019-02-23T00:32:57.138Z,-0.90
2019-02-23T00:35:25.580Z,-0.90
2019-02-23T00:37:54.037Z,-0.90
2019-02-23T00:40:22.491Z,-0.90
2019-02-23T00:42:50.938Z,-0.80
2019-02-23T00:45:19.387Z,-0.90
2019-02-23T00:47:47.836Z,-0.80
2019-02-23T00:50:16.275Z,-0.90
2019-02-23T00:52:44.727Z,-0.90
2019-02-23T00:55:13.175Z,-0.90
2019-02-23T00:57:41.629Z,-0.90
2019-02-23T01:00:11.715Z,-0.80
2019-02-23T01:02:40.232Z,-0.80
2019-02-23T01:05:08.733Z,-0.90
2019-02-23T01:07:37.187Z,-0.80
2019-02-23T01:10:08.551Z,-0.90
2019-02-23T01:12:37.072Z,-0.90
2019-02-23T01:15:08.367Z,-0.90
2019-02-23T01:17:36.820Z,-0.90
2019-02-23T01:20:07.811Z,-0.90
2019-02-23T01:22:36.264Z,-0.90
2019-02-23T01:25:05.742Z,-0.90
2019-02-23T01:27:34.193Z,-0.90
2019-02-23T01:30:02.716Z,-1.00
2019-02-23T01:32:31.160Z,-1.00
2019-02-23T01:34:59.616Z,-1.10
2019-02-23T01:37:28.064Z,-1.10
2019-02-23T01:39:56.537Z,-1.10
2019-02-23T01:42:24.990Z,-1.20
2019-02-23T01:44:53.437Z,-1.20
2019-02-23T01:47:21.885Z,-1.20
2019-02-23T01:49:58.537Z,-1.30
2019-02-23T01:52:20.508Z,-1.30
2019-02-23T01:54:48.972Z,-1.40
2019-02-23T01:57:17.402Z,-1.40
2019-02-23T01:59:45.843Z,-1.50
2019-02-23T02:02:15.232Z,-1.50
2019-02-23T02:04:43.688Z,-1.50
2019-02-23T02:07:12.147Z,-1.50
2019-02-23T02:09:40.732Z,-1.50
2019-02-23T02:12:11.049Z,-1.40
2019-02-23T02:14:39.500Z,-1.40
2019-02-23T02:17:07.997Z,-1.40
2019-02-23T02:19:36.464Z,-1.40
2019-02-23T02:22:04.958Z,-1.40
2019-02-23T02:24:33.401Z,-1.40
2019-02-23T02:27:01.851Z,-1.40
2019-02-23T02:29:30.307Z,-1.30
2019-02-23T02:31:58.746Z,-1.40
2019-02-23T02:34:27.196Z,-1.40
2019-02-23T02:36:55.627Z,-1.40
2019-02-23T02:39:24.082Z,-1.40
2019-02-23T02:41:52.540Z,-1.40
2019-02-23T02:44:21.001Z,-1.30
2019-02-23T02:46:49.450Z,-1.30
2019-02-23T02:49:18.367Z,-1.30
2019-02-23T02:51:46.810Z,-1.20
2019-02-23T02:54:15.280Z,-1.20
2019-02-23T02:56:43.724Z,-1.20
2019-02-23T02:59:12.176Z,-1.10
2019-02-23T03:01:40.692Z,-1.10
2019-02-23T03:04:09.222Z,-1.10
2019-02-23T03:06:39.319Z,-1.10
2019-02-23T03:09:09.504Z,-1.10
2019-02-23T03:11:37.935Z,-1.10
2019-02-23T03:14:06.393Z,-1.10
2019-02-23T03:16:34.829Z,-1.00
2019-02-23T03:19:03.295Z,-1.00
2019-02-23T03:21:31.726Z,-1.00
2019-02-23T03:24:19.514Z,-1.00
2019-02-23T03:26:48.038Z,-1.10
2019-02-23T03:29:16.481Z,-1.10
2019-02-23T03:31:44.923Z,-1.10
2019-02-23T03:34:13.373Z,-1.10
2019-02-23T03:36:41.807Z,-1.10
2019-02-23T03:39:10.264Z,-1.00
2019-02-23T03:41:38.708Z,-1.10
2019-02-23T03:44:07.151Z,-1.10
2019-02-23T03:46:35.592Z,-1.10
2019-02-23T03:49:04.050Z,-1.10
2019-02-23T03:51:32.491Z,-1.00
2019-02-23T03:54:01.122Z,-1.00
2019-02-23T03:56:29.567Z,-1.00
2019-02-23T03:58:58.273Z,-1.00
2019-02-23T04:01:26.720Z,-1.10
2019-02-23T04:03:55.161Z,-1.10
2019-02-23T04:06:42.942Z,-1.10
2019-02-23T04:09:11.395Z,-1.20
2019-02-23T04:11:39.854Z,-1.20
2019-02-23T04:14:08.318Z,-1.30
2019-02-23T04:16:36.750Z,-1.20
2019-02-23T04:19:05.207Z,-1.30
2019-02-23T04:21:33.654Z,-1.30
2019-02-23T04:24:02.103Z,-1.40
2019-02-23T04:26:30.545Z,-1.30
2019-02-23T04:28:59.033Z,-1.40
2019-02-23T04:31:27.488Z,-1.40
2019-02-23T04:33:55.955Z,-1.40
2019-02-23T04:36:24.394Z,-1.50
2019-02-23T04:38:52.851Z,-1.50
2019-02-23T04:41:21.289Z,-1.50
2019-02-23T04:43:49.772Z,-1.50
2019-02-23T04:46:18.210Z,-1.50
2019-02-23T04:48:46.944Z,-1.50
2019-02-23T04:51:15.386Z,-1.50
2019-02-23T04:53:43.828Z,-1.50
2019-02-23T04:56:12.276Z,-1.60
2019-02-23T04:58:40.721Z,-1.60
2019-02-23T05:01:09.160Z,-1.70
2019-02-23T05:03:37.599Z,-1.60
2019-02-23T05:06:06.052Z,-1.70
2019-02-23T05:08:34.487Z,-1.70
2019-02-23T05:11:02.947Z,-1.70
2019-02-23T05:13:31.390Z,-1.70
2019-02-23T05:15:59.921Z,-1.70
2019-02-23T05:18:28.368Z,-1.70
2019-02-23T05:20:57.074Z,-1.70
2019-02-23T05:23:25.578Z,-1.70
2019-02-23T05:25:54.049Z,-1.70
2019-02-23T05:28:22.487Z,-1.70
2019-02-23T05:30:50.940Z,-1.60
2019-02-23T05:33:19.386Z,-1.60
2019-02-23T05:35:47.843Z,-1.70
2019-02-23T05:38:16.286Z,-1.70
2019-02-23T05:40:44.767Z,-1.80
2019-02-23T05:43:13.190Z,-1.80
2019-02-23T05:45:41.647Z,-1.80
2019-02-23T05:48:10.097Z,-1.80
2019-02-23T05:50:38.716Z,-1.90
2019-02-23T05:53:07.227Z,-1.90
2019-02-23T05:55:35.678Z,-1.90
2019-02-23T05:58:04.116Z,-2.00
2019-02-23T06:00:32.640Z,-2.00
2019-02-23T06:03:01.124Z,-2.00
2019-02-23T06:05:30.662Z,-2.00
2019-02-23T06:07:59.170Z,-2.00
2019-02-23T06:10:27.629Z,-2.00
2019-02-23T06:12:56.157Z,-2.00
2019-02-23T06:15:24.905Z,-2.00
2019-02-23T06:17:53.346Z,-2.00
2019-02-23T06:20:21.797Z,-2.00
2019-02-23T06:22:50.272Z,-2.00
2019-02-23T06:25:18.762Z,-2.00
2019-02-23T06:27:47.219Z,-1.90
2019-02-23T06:30:18.354Z,-1.80
2019-02-23T06:32:45.902Z,-1.70
2019-02-23T06:35:14.344Z,-1.70
2019-02-23T06:37:42.787Z,-1.70
2019-02-23T06:40:11.947Z,-1.70
2019-02-23T06:42:40.420Z,-1.60
2019-02-23T06:45:11.416Z,-1.60
2019-02-23T06:47:39.857Z,-1.50
2019-02-23T06:50:08.652Z,-1.40
2019-02-23T06:52:37.094Z,-1.30
2019-02-23T06:55:06.710Z,-1.20
2019-02-23T06:57:35.146Z,-1.20
2019-02-23T07:00:24.455Z,-1.10
2019-02-23T07:02:52.881Z,-1.00
2019-02-23T07:05:21.339Z,-0.90
2019-02-23T07:07:49.783Z,-0.90
2019-02-23T07:10:18.232Z,-0.70
2019-02-23T07:12:46.683Z,-0.60
2019-02-23T07:15:15.128Z,-0.50
2019-02-23T07:17:43.569Z,-0.50
2019-02-23T07:20:12.165Z,-0.30
2019-02-23T07:22:40.598Z,-0.30
2019-02-23T07:25:10.097Z,-0.30
2019-02-23T07:27:38.567Z,-0.10
2019-02-23T07:30:12.303Z,0.10
2019-02-23T07:32:40.732Z,0.20
2019-02-23T07:35:09.714Z,0.20
2019-02-23T07:37:38.151Z,0.30
2019-02-23T07:40:09.857Z,0.40
2019-02-23T07:42:38.298Z,0.40
2019-02-23T07:45:08.787Z,0.50
2019-02-23T07:47:37.227Z,0.50
2019-02-23T07:50:13.974Z,0.70
2019-02-23T07:52:42.422Z,0.80
2019-02-23T07:55:10.880Z,0.80
2019-02-23T07:57:39.351Z,0.70
2019-02-23T08:00:11.192Z,0.80
2019-02-23T08:02:39.629Z,0.90
2019-02-23T08:05:09.600Z,0.80
2019-02-23T08:07:39.970Z,0.90
2019-02-23T08:10:10.357Z,0.80
2019-02-23T08:12:38.859Z,0.80
2019-02-23T08:15:09.847Z,0.90
2019-02-23T08:17:38.287Z,1.20
2019-02-23T08:20:09.869Z,1.90
2019-02-23T08:22:38.310Z,2.50
2019-02-23T08:25:09.683Z,2.90
2019-02-23T08:27:38.139Z,3.70
2019-02-23T08:30:16.865Z,4.10
2019-02-23T08:32:45.326Z,4.10
2019-02-23T08:35:15.209Z,4.10
2019-02-23T08:37:43.659Z,4.00
2019-02-23T08:40:14.166Z,3.70
2019-02-23T08:42:42.702Z,3.40
2019-02-23T08:45:11.135Z,3.20
2019-02-23T08:47:39.585Z,3.20
2019-02-23T08:50:11.102Z,2.90
2019-02-23T08:52:48.490Z,2.70
2019-02-23T08:55:10.542Z,2.50
2019-02-23T08:57:39.003Z,2.50
2019-02-23T09:00:13.054Z,2.50
2019-02-23T09:02:41.582Z,2.50
2019-02-23T09:05:11.256Z,2.60
2019-02-23T09:07:39.701Z,2.80
2019-02-23T09:10:10.790Z,2.80
2019-02-23T09:12:39.225Z,3.00
2019-02-23T09:15:09.002Z,3.10
2019-02-23T09:17:37.444Z,3.10
2019-02-23T09:20:29.129Z,3.00
2019-02-23T09:23:00.273Z,3.00
2019-02-23T09:25:25.545Z,3.10
2019-02-23T09:27:54.001Z,3.20
2019-02-23T09:30:22.429Z,3.30
2019-02-23T09:32:50.870Z,3.50
2019-02-23T09:35:19.310Z,3.80
2019-02-23T09:37:47.755Z,4.00
2019-02-23T09:40:18.231Z,4.00
2019-02-23T09:42:46.671Z,4.00
2019-02-23T09:45:15.117Z,4.10
2019-02-23T09:47:43.565Z,4.30
2019-02-23T09:50:12.005Z,4.50
2019-02-23T09:52:40.461Z,4.80
2019-02-23T09:55:09.725Z,5.20
2019-02-23T09:57:38.167Z,5.40
2019-02-23T10:00:09.519Z,5.90
2019-02-23T10:02:37.965Z,6.10
2019-02-23T10:05:07.342Z,6.00
2019-02-23T10:07:35.781Z,5.80
2019-02-23T10:10:06.647Z,5.90
2019-02-23T10:12:35.180Z,6.20
2019-02-23T10:15:04.352Z,6.40
2019-02-23T10:17:32.808Z,6.70
2019-02-23T10:20:01.237Z,6.90
2019-02-23T10:22:29.700Z,6.80
2019-02-23T10:24:58.130Z,6.80
2019-02-23T10:27:26.643Z,7.00
2019-02-23T10:29:55.094Z,7.20
2019-02-23T10:32:23.613Z,7.40
2019-02-23T10:34:52.049Z,7.50
2019-02-23T10:37:20.518Z,7.50
2019-02-23T10:39:48.953Z,7.70
2019-02-23T10:42:17.407Z,8.10
2019-02-23T10:44:45.833Z,7.80
2019-02-23T10:47:14.289Z,7.90
2019-02-23T10:49:42.745Z,8.20
2019-02-23T10:52:11.216Z,8.50
2019-02-23T10:54:39.650Z,8.80
2019-02-23T10:57:08.091Z,9.40
2019-02-23T10:59:36.537Z,9.70
2019-02-23T11:02:04.994Z,9.90
2019-02-23T11:04:33.482Z,10.10
2019-02-23T11:07:01.922Z,10.10
2019-02-23T11:09:32.131Z,9.80
2019-02-23T11:12:00.588Z,9.80
2019-02-23T11:14:29.018Z,9.80
2019-02-23T11:16:57.473Z,10.00
2019-02-23T11:19:25.917Z,10.30
2019-02-23T11:21:54.361Z,10.40
2019-02-23T11:24:22.795Z,10.70
2019-02-23T11:26:51.248Z,11.00
2019-02-23T11:29:19.704Z,11.20
2019-02-23T11:31:48.147Z,11.20
2019-02-23T11:34:16.601Z,11.20
2019-02-23T11:36:45.051Z,11.00
2019-02-23T11:39:13.564Z,11.40
2019-02-23T11:41:42.008Z,11.70
2019-02-23T11:44:10.715Z,12.10
2019-02-23T11:46:39.150Z,12.10
2019-02-23T11:49:08.354Z,12.50
2019-02-23T11:51:36.813Z,12.80
2019-02-23T11:54:05.254Z,12.80
2019-02-23T11:56:33.692Z,12.70
2019-02-23T11:59:02.140Z,12.80
2019-02-23T12:01:30.599Z,13.10
2019-02-23T12:03:59.059Z,13.30
2019-02-23T12:06:27.509Z,13.30
2019-02-23T12:08:57.389Z,13.00
2019-02-23T12:11:25.988Z,13.00
2019-02-23T12:13:54.436Z,12.80
2019-02-23T12:16:22.876Z,13.20
2019-02-23T12:18:51.340Z,13.40
2019-02-23T12:21:19.794Z,13.60
2019-02-23T12:23:48.312Z,13.70
2019-02-23T12:26:16.741Z,13.60
2019-02-23T12:28:45.191Z,13.80
2019-02-23T12:31:13.634Z,14.10
2019-02-23T12:33:42.091Z,14.40
2019-02-23T12:36:10.523Z,14.30
2019-02-23T12:38:38.971Z,14.60
2019-02-23T12:41:07.420Z,14.70
2019-02-23T12:43:35.869Z,14.60
2019-02-23T12:46:04.307Z,14.70
2019-02-23T12:48:32.769Z,14.80
2019-02-23T12:51:01.207Z,14.10
2019-02-23T12:53:29.669Z,14.10
2019-02-23T12:55:58.116Z,14.30
2019-02-23T12:58:26.630Z,14.40
2019-02-23T13:00:55.077Z,14.40
2019-02-23T13:03:23.532Z,14.50
2019-02-23T13:05:51.969Z,14.30
2019-02-23T13:08:20.415Z,13.90
2019-02-23T13:10:50.998Z,14.00
2019-02-23T13:13:22.528Z,14.10
2019-02-23T13:15:59.582Z,14.50
2019-02-23T13:18:37.055Z,14.80
2019-02-23T13:21:14.246Z,15.20
2019-02-23T13:24:27.705Z,15.00
2019-02-23T13:26:57.395Z,14.90
2019-02-23T13:29:55.459Z,15.00
2019-02-23T13:32:39.015Z,15.20
2019-02-23T13:35:13.171Z,15.60
2019-02-23T13:37:44.683Z,15.00
2019-02-23T13:40:34.691Z,14.40
2019-02-23T13:43:18.169Z,14.00
2019-02-23T13:45:49.691Z,13.70
2019-02-23T13:48:36.427Z,13.40
2019-02-23T13:51:44.261Z,13.50
2019-02-23T13:54:38.868Z,14.50
2019-02-23T13:57:19.887Z,16.30
2019-02-23T13:59:54.282Z,16.90
2019-02-23T14:02:42.230Z,16.50
2019-02-23T14:05:31.159Z,17.00
2019-02-23T14:08:08.280Z,17.80
2019-02-23T14:10:48.684Z,18.30
2019-02-23T14:13:55.469Z,18.30
2019-02-23T14:16:41.840Z,18.10
2019-02-23T14:19:28.169Z,17.70
2019-02-23T14:22:14.509Z,16.70
2019-02-23T14:24:49.995Z,16.20
2019-02-23T14:27:24.986Z,15.40
2019-02-23T14:30:16.212Z,14.80
2019-02-23T14:33:10.548Z,14.30
2019-02-23T14:35:58.465Z,14.40
2019-02-23T14:38:38.772Z,15.60
2019-02-23T14:41:13.259Z,15.30
2019-02-23T14:44:18.310Z,14.50
2019-02-23T14:47:02.342Z,13.20
2019-02-23T14:49:33.919Z,12.10
2019-02-23T14:52:11.301Z,12.40
2019-02-23T14:55:01.665Z,12.80
2019-02-23T14:57:53.052Z,13.10
2019-02-23T15:00:45.100Z,13.50
2019-02-23T15:03:42.169Z,14.20
2019-02-23T15:06:30.020Z,14.80
2019-02-23T15:09:01.535Z,16.00
2019-02-23T15:11:45.014Z,16.00
2019-02-23T15:14:39.376Z,16.50
2019-02-23T15:17:22.534Z,16.10
2019-02-23T15:20:13.406Z,16.70
2019-02-23T15:23:08.430Z,16.40
2019-02-23T15:25:48.190Z,16.20
2019-02-23T15:28:37.510Z,15.80
2019-02-23T15:31:01.426Z,15.10
2019-02-23T15:33:48.192Z,14.40
2019-02-23T15:36:28.797Z,13.60
2019-02-23T15:39:18.552Z,13.20
2019-02-23T15:42:06.507Z,13.00
2019-02-23T15:44:52.765Z,12.60
2019-02-23T15:47:43.929Z,12.70
2019-02-23T15:50:13.986Z,12.30
2019-02-23T15:52:42.691Z,11.90
2019-02-23T15:55:11.297Z,11.60
2019-02-23T15:57:39.743Z,11.30
2019-02-23T16:00:08.918Z,11.10
2019-02-23T16:02:37.358Z,10.60
2019-02-23T16:05:06.162Z,10.20
2019-02-23T16:07:34.618Z,9.70
2019-02-23T16:10:03.918Z,9.40
2019-02-23T16:12:32.363Z,9.30
2019-02-23T16:15:00.880Z,9.00
2019-02-23T16:17:29.422Z,8.70
2019-02-23T16:19:57.878Z,8.60
2019-02-23T16:22:26.316Z,8.50
2019-02-23T16:24:54.764Z,8.40
2019-02-23T16:27:23.191Z,8.30
2019-02-23T16:29:51.650Z,8.10
2019-02-23T16:32:20.183Z,8.00
2019-02-23T16:34:48.691Z,7.90
2019-02-23T16:37:17.144Z,7.70
2019-02-23T16:39:45.761Z,7.60
2019-02-23T16:42:14.254Z,7.40
2019-02-23T16:44:42.733Z,7.30
2019-02-23T16:47:11.247Z,7.20
2019-02-23T16:49:39.692Z,7.10
2019-02-23T16:52:09.307Z,7.00
2019-02-23T16:54:37.952Z,6.80
2019-02-23T16:57:06.397Z,6.80
2019-02-23T16:59:34.833Z,6.60
2019-02-23T17:02:03.285Z,6.50
2019-02-23T17:04:31.729Z,6.40
2019-02-23T17:07:00.176Z,6.20
2019-02-23T17:09:28.604Z,6.00
2019-02-23T17:11:57.055Z,5.90
2019-02-23T17:14:25.493Z,5.80
2019-02-23T17:16:53.929Z,5.70
2019-02-23T17:19:22.380Z,5.60
2019-02-23T17:21:50.879Z,5.50
2019-02-23T17:24:19.319Z,5.40
2019-02-23T17:26:47.769Z,5.30
2019-02-23T17:29:16.221Z,5.30
2019-02-23T17:31:44.661Z,5.20
2019-02-23T17:34:13.106Z,5.10
2019-02-23T17:36:41.555Z,5.00
2019-02-23T17:39:10.661Z,4.90
2019-02-23T17:41:39.126Z,4.80
2019-02-23T17:44:07.561Z,4.80
2019-02-23T17:46:36.085Z,4.70
2019-02-23T17:49:04.521Z,4.60
2019-02-23T17:51:32.964Z,4.50
2019-02-23T17:54:01.398Z,4.40
2019-02-23T17:56:29.841Z,4.40
2019-02-23T17:58:58.294Z,4.30
2019-02-23T18:01:26.761Z,4.20
2019-02-23T18:03:55.199Z,4.20
2019-02-23T18:06:23.657Z,4.20
2019-02-23T18:08:52.079Z,4.10
2019-02-23T18:11:22.159Z,4.00
2019-02-23T18:13:50.602Z,3.90
2019-02-23T18:16:19.053Z,3.80
2019-02-23T18:18:47.483Z,3.70
2019-02-23T18:21:15.950Z,3.60
2019-02-23T18:23:44.381Z,3.60
2019-02-23T18:26:20.569Z,3.50
2019-02-23T18:28:43.263Z,3.40
2019-02-23T18:31:11.724Z,3.40
2019-02-23T18:33:40.338Z,3.40
2019-02-23T18:36:08.794Z,3.40
2019-02-23T18:38:37.410Z,3.30
2019-02-23T18:41:05.912Z,3.30
2019-02-23T18:43:34.473Z,3.30
2019-02-23T18:46:02.924Z,3.20
2019-02-23T18:48:31.386Z,3.20
2019-02-23T18:50:59.827Z,3.20
2019-02-23T18:53:28.284Z,3.20
2019-02-23T18:55:56.755Z,3.10
2019-02-23T18:58:25.210Z,3.00
2019-02-23T19:00:53.666Z,3.00
2019-02-23T19:03:22.200Z,3.00
2019-02-23T19:05:50.705Z,3.00
2019-02-23T19:08:19.152Z,3.00
2019-02-23T19:10:47.592Z,2.90
2019-02-23T19:13:16.039Z,2.90
2019-02-23T19:15:46.125Z,2.80
2019-02-23T19:18:14.572Z,2.90
2019-02-23T19:20:43.131Z,2.80
2019-02-23T19:23:11.601Z,2.80
2019-02-23T19:25:40.056Z,2.80
2019-02-23T19:28:08.512Z,2.80
2019-02-23T19:30:37.018Z,2.70
2019-02-23T19:33:05.467Z,2.60
2019-02-23T19:35:36.898Z,2.70
2019-02-23T19:38:05.351Z,2.70
2019-02-23T19:40:33.831Z,2.70
2019-02-23T19:43:02.377Z,2.70
2019-02-23T19:45:32.702Z,2.60
2019-02-23T19:48:02.770Z,2.70
2019-02-23T19:50:37.056Z,2.60
2019-02-23T19:53:11.190Z,2.60
2019-02-23T19:55:38.742Z,2.50
2019-02-23T19:58:07.320Z,2.50
2019-02-23T20:00:35.756Z,2.40
2019-02-23T20:03:04.248Z,2.30
2019-02-23T20:05:32.700Z,2.30
2019-02-23T20:08:01.275Z,2.20
2019-02-23T20:10:29.742Z,2.20
2019-02-23T20:12:58.281Z,2.10
2019-02-23T20:15:26.788Z,2.10
2019-02-23T20:17:55.311Z,2.10
2019-02-23T20:20:23.773Z,2.00
2019-02-23T20:22:52.226Z,2.10
2019-02-23T20:25:20.734Z,2.10
2019-02-23T20:27:49.173Z,2.10
2019-02-23T20:30:17.690Z,2.10
2019-02-23T20:32:46.133Z,2.00
2019-02-23T20:35:14.738Z,2.10
2019-02-23T20:37:43.242Z,2.00
2019-02-23T20:40:11.762Z,2.00
2019-02-23T20:42:40.211Z,2.00
2019-02-23T20:45:09.686Z,2.00
2019-02-23T20:47:38.208Z,2.10
2019-02-23T20:50:10.759Z,2.10
2019-02-23T20:52:39.204Z,2.10
2019-02-23T20:55:08.892Z,2.00
2019-02-23T20:57:37.330Z,2.00
2019-02-23T21:00:08.916Z,1.90
2019-02-23T21:02:37.370Z,1.90
2019-02-23T21:05:12.049Z,1.90
2019-02-23T21:07:40.486Z,1.90
2019-02-23T21:10:10.245Z,1.80
2019-02-23T21:12:38.698Z,1.80
2019-02-23T21:15:09.447Z,1.80
2019-02-23T21:17:37.886Z,1.80
2019-02-23T21:20:08.851Z,1.80
2019-02-23T21:22:37.290Z,1.70
2019-02-23T21:25:07.468Z,1.70
2019-02-23T21:27:35.979Z,1.70
2019-02-23T21:30:06.954Z,1.70
2019-02-23T21:32:35.392Z,1.70
2019-02-23T21:35:05.170Z,1.60
2019-02-23T21:37:33.610Z,1.60
2019-02-23T21:40:02.068Z,1.60
2019-02-23T21:42:32.133Z,1.50
2019-02-23T21:45:00.834Z,1.40
2019-02-23T21:47:29.286Z,1.40
2019-02-23T21:49:57.796Z,1.40
2019-02-23T21:52:26.293Z,1.40
2019-02-23T21:54:54.803Z,1.30
2019-02-23T21:57:23.243Z,1.30
2019-02-23T21:59:51.704Z,1.30
2019-02-23T22:02:20.276Z,1.30
2019-02-23T22:04:48.792Z,1.30
2019-02-23T22:07:17.289Z,1.30
2019-02-23T22:09:45.749Z,1.30
2019-02-23T22:12:14.197Z,1.20
2019-02-23T22:14:42.702Z,1.30
2019-02-23T22:17:11.136Z,1.30
2019-02-23T22:19:39.598Z,1.30
2019-02-23T22:22:08.026Z,1.30
2019-02-23T22:24:36.469Z,1.40
2019-02-23T22:27:04.916Z,1.40
2019-02-23T22:29:33.439Z,1.40
2019-02-23T22:32:01.957Z,1.30
2019-02-23T22:34:30.487Z,1.30
2019-02-23T22:36:58.932Z,1.30
2019-02-23T22:39:27.387Z,1.20
2019-02-23T22:41:55.833Z,1.20
2019-02-23T22:44:24.296Z,1.20
2019-02-23T22:46:53.554Z,1.20
2019-02-23T22:49:21.994Z,1.20
2019-02-23T22:51:50.439Z,1.10
2019-02-23T22:54:18.890Z,1.10
2019-02-23T22:56:47.381Z,1.10
2019-02-23T22:59:15.864Z,1.10
2019-02-23T23:01:44.730Z,1.10
2019-02-23T23:04:13.186Z,1.10
2019-02-23T23:06:41.619Z,1.10
2019-02-23T23:09:11.706Z,1.00
2019-02-23T23:11:40.142Z,1.10
2019-02-23T23:14:08.581Z,1.00
2019-02-23T23:16:37.022Z,1.00
2019-02-23T23:19:05.466Z,1.00
2019-02-23T23:21:33.897Z,1.00
2019-02-23T23:24:02.347Z,1.00
2019-02-23T23:26:30.786Z,0.90
2019-02-23T23:28:59.251Z,0.90
2019-02-23T23:31:27.681Z,0.80
2019-02-23T23:33:56.213Z,0.90
2019-02-23T23:36:25.327Z,0.80
2019-02-23T23:38:53.763Z,0.80
2019-02-23T23:41:22.205Z,0.70
2019-02-23T23:43:50.673Z,0.80
2019-02-23T23:46:19.107Z,0.80
2019-02-23T23:48:47.618Z,0.70
2019-02-23T23:51:16.065Z,0.70
2019-02-23T23:53:44.495Z,0.70
2019-02-23T23:56:12.930Z,0.70
2019-02-23T23:58:41.363Z,0.70
